Time;durP1;ratioP1;P1;durP2;ratioP2;P2;SDS_P1;SDS_P2;PMS_P1;PMS_P2;Temp;Humidity;BMP_temperature;BMP_pressure;BME280_temperature;BME280_humidity;BME280_pressure;Samples;Min_cycle;Max_cycle;Signal;HPM_P1;HPM_P2
2022/07/04 00:01:12;;;;;;;;;;;;;;;23.85;54.53;101083.09;5046993;28;4486;-67
2022/07/04 00:03:39;;;;;;;;;;;;;;;23.85;54.61;101074.44;5045462;28;5436;-67
2022/07/04 00:06:05;;;;;;;;;;;;;;;23.85;54.42;101080.22;5047705;28;4211;-67
2022/07/04 00:08:32;;;;;;;;;;;;;;;23.85;54.70;101077.31;5048054;28;4255;-67
2022/07/04 00:10:58;;;;;;;;;;;;;;;23.85;54.53;101074.44;5046380;28;4131;-67
2022/07/04 00:13:25;;;;;;;;;;;;;;;23.86;54.70;101070.13;5043329;28;4129;-68
2022/07/04 00:15:51;;;;;;;;;;;;;;;23.83;54.79;101058.47;5053048;28;4492;-67
2022/07/04 00:18:18;;;;;;;;;;;;;;;23.81;54.58;101046.84;5043946;28;4221;-67
2022/07/04 00:20:44;;;;;;;;;;;;;;;23.82;54.88;101036.00;5048480;28;4217;-67
2022/07/04 00:23:10;;;;;;;;;;;;;;;23.81;54.84;101034.53;5044954;28;4261;-67
2022/07/04 00:25:37;;;;;;;;;;;;;;;23.80;54.81;101041.72;5045896;28;5217;-67
2022/07/04 00:28:03;;;;;;;;;;;;;;;23.80;55.02;101056.94;5047342;28;4132;-67
2022/07/04 00:30:30;;;;;;;;;;;;;;;23.80;54.86;101039.56;5047966;28;4141;-68
2022/07/04 00:32:56;;;;;;;;;;;;;;;23.80;54.68;101051.16;5046696;28;3996;-67
2022/07/04 00:35:22;;;;;;;;;;;;;;;23.78;54.99;101059.75;5050644;28;5448;-68
2022/07/04 00:37:49;;;;;;;;;;;;;;;23.78;55.12;101065.53;5056020;28;4118;-67
2022/07/04 00:40:15;;;;;;;;;;;;;;;23.78;55.14;101056.84;5058105;28;4232;-67
2022/07/04 00:42:41;;;;;;;;;;;;;;;23.78;55.21;101047.44;5055800;28;4183;-67
2022/07/04 00:45:08;;;;;;;;;;;;;;;23.79;55.17;101060.47;5058935;28;4240;-67
2022/07/04 00:47:34;;;;;;;;;;;;;;;23.77;55.31;101057.50;5055128;28;4236;-67
2022/07/04 00:50:01;;;;;;;;;;;;;;;23.78;55.25;101064.78;5056476;28;5230;-67
2022/07/04 00:52:27;;;;;;;;;;;;;;;23.76;55.26;101071.25;5054823;28;5356;-68
2022/07/04 00:54:54;;;;;;;;;;;;;;;23.77;55.39;101075.59;5055966;28;3974;-68
2022/07/04 00:57:20;;;;;;;;;;;;;;;23.77;55.11;101084.28;5044784;28;4278;-68
2022/07/04 00:59:46;;;;;;;;;;;;;;;23.76;55.45;101085.69;5041483;28;5373;-67
2022/07/04 01:02:13;;;;;;;;;;;;;;;23.76;55.42;101087.84;5046342;28;5474;-67
2022/07/04 01:04:39;;;;;;;;;;;;;;;23.75;55.54;101095.03;5046488;28;4499;-67
2022/07/04 01:07:06;;;;;;;;;;;;;;;23.74;55.57;101094.28;5048331;28;4221;-67
2022/07/04 01:09:32;;;;;;;;;;;;;;;23.73;55.43;101098.56;5048471;28;4250;-67
2022/07/04 01:11:59;;;;;;;;;;;;;;;23.74;55.85;101105.84;5044300;28;5317;-68
2022/07/04 01:14:25;;;;;;;;;;;;;;;23.73;55.90;101107.25;5043734;28;4468;-67
2022/07/04 01:16:51;;;;;;;;;;;;;;;23.72;55.90;101120.22;5046336;28;4322;-67
2022/07/04 01:19:18;;;;;;;;;;;;;;;23.71;55.87;101123.75;5048366;28;5239;-67
2022/07/04 01:21:44;;;;;;;;;;;;;;;23.71;55.79;101121.63;5048148;28;4125;-68
2022/07/04 01:24:11;;;;;;;;;;;;;;;23.70;56.24;101117.25;5046357;28;4270;-67
2022/07/04 01:26:38;;;;;;;;;;;;;;;23.68;56.45;101114.28;5042425;28;4135;-67
2022/07/04 01:29:04;;;;;;;;;;;;;;;23.67;56.45;101118.59;5038649;28;4133;-67
2022/07/04 01:31:30;;;;;;;;;;;;;;;23.66;56.45;101119.97;5041148;28;5324;-67
2022/07/04 01:33:57;;;;;;;;;;;;;;;23.67;56.41;101130.16;5044471;28;4282;-67
2022/07/04 01:36:23;;;;;;;;;;;;;;;23.67;56.50;101121.47;5046573;28;4323;-67
2022/07/04 01:38:50;;;;;;;;;;;;;;;23.68;56.81;101125.09;5046794;28;4019;-67
2022/07/04 01:41:16;;;;;;;;;;;;;;;23.66;56.97;101134.44;5050643;28;4168;-67
2022/07/04 01:43:42;;;;;;;;;;;;;;;23.67;57.05;101141.72;5047102;28;4153;-68
2022/07/04 01:46:09;;;;;;;;;;;;;;;23.67;56.76;101150.38;5042574;28;4212;-67
2022/07/04 01:48:35;;;;;;;;;;;;;;;23.67;57.12;101170.63;5047503;28;4140;-67
2022/07/04 01:51:02;;;;;;;;;;;;;;;23.66;57.03;101160.44;5051435;28;4071;-67
2022/07/04 01:53:28;;;;;;;;;;;;;;;23.66;57.00;101151.03;5051724;28;4174;-68
2022/07/04 01:55:54;;;;;;;;;;;;;;;23.65;57.41;101158.97;5051724;28;4210;-68
2022/07/04 01:58:21;;;;;;;;;;;;;;;23.65;57.45;101150.31;5045145;28;4168;-68
2022/07/04 02:03:33;;;;;;;;;;;;;;;23.63;57.52;101158.91;5047588;28;4803;-67
2022/07/04 02:05:59;;;;;;;;;;;;;;;23.60;57.76;101160.25;5044812;28;4294;-67
2022/07/04 02:09:14;;;;;;;;;;;;;;;23.62;57.76;101157.44;5045442;28;4167;-67
2022/07/04 02:11:12;;;;;;;;;;;;;;;23.60;57.89;101152.31;5048439;28;4139;-67
2022/07/04 02:13:38;;;;;;;;;;;;;;;23.61;57.89;101161.72;5044226;28;5275;-67
2022/07/04 02:16:04;;;;;;;;;;;;;;;23.61;57.68;101161.72;5040944;28;4190;-67
2022/07/04 02:18:31;;;;;;;;;;;;;;;23.58;57.94;101158.00;5046125;28;4222;-67
2022/07/04 02:20:57;;;;;;;;;;;;;;;23.59;57.69;101176.84;5045961;28;4233;-68
2022/07/04 02:23:24;;;;;;;;;;;;;;;23.60;57.83;101166.75;5045430;28;4237;-67
2022/07/04 02:25:50;;;;;;;;;;;;;;;23.60;57.84;101163.13;5044710;28;4346;-67
2022/07/04 02:28:18;;;;;;;;;;;;;;;23.59;57.97;101159.50;5043566;28;4127;-67
2022/07/04 02:30:44;;;;;;;;;;;;;;;23.59;58.35;101170.31;5044602;28;4138;-68
2022/07/04 02:33:11;;;;;;;;;;;;;;;23.57;58.04;101173.13;5043960;28;4220;-67
2022/07/04 02:35:37;;;;;;;;;;;;;;;23.58;58.26;101174.63;5047286;28;4544;-67
2022/07/04 02:38:03;;;;;;;;;;;;;;;23.56;58.45;101165.88;5044760;28;5188;-67
2022/07/04 02:40:30;;;;;;;;;;;;;;;23.56;58.42;101171.66;5046670;28;4685;-67
2022/07/04 02:42:56;;;;;;;;;;;;;;;23.54;58.50;101177.34;5042815;28;4142;-67
2022/07/04 02:45:22;;;;;;;;;;;;;;;23.54;58.30;101171.56;5041966;28;4521;-68
2022/07/04 02:47:49;;;;;;;;;;;;;;;23.51;58.35;101164.97;5043826;28;4222;-67
2022/07/04 02:50:15;;;;;;;;;;;;;;;23.52;58.31;101165.72;5043938;28;5494;-68
2022/07/04 02:52:41;;;;;;;;;;;;;;;23.51;58.41;101152.66;5044769;28;4155;-67
2022/07/04 02:55:08;;;;;;;;;;;;;;;23.49;58.70;101162.00;5045700;28;4252;-67
2022/07/04 02:57:37;;;;;;;;;;;;;;;23.50;58.37;101162.72;5042597;28;4475;-67
2022/07/04 03:00:04;;;;;;;;;;;;;;;23.49;58.80;101161.25;5038519;28;4113;-68
2022/07/04 03:02:30;;;;;;;;;;;;;;;23.48;58.51;101177.88;5038956;28;4206;-67
2022/07/04 03:04:56;;;;;;;;;;;;;;;23.48;58.71;101186.53;5040954;28;4284;-67
2022/07/04 03:07:23;;;;;;;;;;;;;;;23.47;58.85;101187.94;5040804;28;5244;-67
2022/07/04 03:09:49;;;;;;;;;;;;;;;23.46;58.55;101185.72;5042558;28;4193;-66
2022/07/04 03:12:15;;;;;;;;;;;;;;;23.46;58.58;101203.06;5044369;28;5384;-67
2022/07/04 03:14:42;;;;;;;;;;;;;;;23.44;58.85;101195.03;5049089;28;4140;-66
2022/07/04 03:17:08;;;;;;;;;;;;;;;23.43;58.91;101193.53;5049004;28;4109;-67
2022/07/04 03:19:35;;;;;;;;;;;;;;;23.44;58.58;101200.09;5049439;28;5207;-66
2022/07/04 03:22:01;;;;;;;;;;;;;;;23.44;58.60;101200.09;5054873;28;5649;-67
2022/07/04 03:24:28;;;;;;;;;;;;;;;23.43;58.57;101205.09;5053597;28;5489;-67
2022/07/04 03:26:54;;;;;;;;;;;;;;;23.42;58.59;101198.59;5054427;28;5393;-66
2022/07/04 03:29:21;;;;;;;;;;;;;;;23.40;58.61;101200.66;5053856;28;4154;-67
2022/07/04 03:31:47;;;;;;;;;;;;;;;23.41;58.71;101202.91;5055695;28;4032;-67
2022/07/04 03:34:13;;;;;;;;;;;;;;;23.40;58.75;101212.97;5019471;28;965087;-66
2022/07/04 03:36:40;;;;;;;;;;;;;;;23.40;58.82;101209.34;5053752;28;4177;-66
2022/07/04 03:39:06;;;;;;;;;;;;;;;23.40;58.64;101218.75;5055152;28;4521;-66
2022/07/04 03:41:33;;;;;;;;;;;;;;;23.41;58.79;101216.63;5052936;28;4518;-66
2022/07/04 03:43:59;;;;;;;;;;;;;;;23.40;58.79;101218.75;5054042;28;4154;-66
2022/07/04 03:46:26;;;;;;;;;;;;;;;23.38;58.96;101221.53;5052513;28;5311;-66
2022/07/04 03:48:53;;;;;;;;;;;;;;;23.37;58.85;101230.91;5053326;28;4254;-66
2022/07/04 03:51:19;;;;;;;;;;;;;;;23.37;58.71;101231.63;5052958;28;4241;-66
2022/07/04 03:53:46;;;;;;;;;;;;;;;23.37;59.08;101237.41;5042723;28;5336;-66
2022/07/04 03:56:12;;;;;;;;;;;;;;;23.36;58.83;101247.47;5042661;28;4220;-67
2022/07/04 03:58:39;;;;;;;;;;;;;;;23.35;58.91;101256.81;5044447;28;5252;-66
2022/07/04 04:01:05;;;;;;;;;;;;;;;23.36;59.16;101259.03;5039816;28;4163;-66
2022/07/04 04:06:16;;;;;;;;;;;;;;;23.34;58.93;101256.09;5046159;28;4217;-65
2022/07/04 04:08:43;;;;;;;;;;;;;;;23.37;58.93;101260.53;5050192;28;4205;-66
2022/07/04 04:11:09;;;;;;;;;;;;;;;23.34;58.85;101267.63;5053120;28;4199;-66
2022/07/04 04:13:35;;;;;;;;;;;;;;;23.33;58.99;101266.13;5051709;28;5310;-66
2022/07/04 04:16:02;;;;;;;;;;;;;;;23.32;59.05;101261.78;5054578;28;4136;-67
2022/07/04 04:18:28;;;;;;;;;;;;;;;23.29;59.34;101268.84;5054151;28;4208;-66
2022/07/04 04:20:54;;;;;;;;;;;;;;;23.31;59.32;101262.44;5050955;28;4174;-66
2022/07/04 04:23:21;;;;;;;;;;;;;;;23.30;58.97;101261.69;5053792;28;6441;-66
2022/07/04 04:25:47;;;;;;;;;;;;;;;23.28;59.04;101258.72;5052824;28;4238;-66
2022/07/04 04:28:20;;;;;;;;;;;;;;;23.29;58.99;101265.97;5050024;28;5302;-67
2022/07/04 04:30:47;;;;;;;;;;;;;;;23.28;59.19;101264.50;5047868;28;4145;-65
2022/07/04 04:33:13;;;;;;;;;;;;;;;23.25;59.28;101260.06;5052654;28;4228;-66
2022/07/04 04:35:39;;;;;;;;;;;;;;;22.87;60.64;101268.56;5045367;28;5302;-71
2022/07/04 04:38:06;;;;;;;;;;;;;;;22.48;61.58;101275.53;5048795;28;4592;-60
2022/07/04 04:40:32;;;;;;;;;;;;;;;22.76;60.62;101275.28;5049828;28;4251;-64
2022/07/04 04:42:59;;;;;;;;;;;;;;;22.24;62.61;101280.97;5041824;28;5339;-66
2022/07/04 04:45:25;;;;;;;;;;;;;;;22.39;61.93;101285.22;5045477;28;5228;-67
2022/07/04 04:47:53;;;;;;;;;;;;;;;22.36;61.91;101289.44;5056924;28;4541;-68
2022/07/04 04:50:20;;;;;;;;;;;;;;;22.30;62.05;101289.16;5052156;28;4209;-68
2022/07/04 04:52:46;;;;;;;;;;;;;;;22.32;61.97;101283.47;5056711;28;4132;-68
2022/07/04 04:55:12;;;;;;;;;;;;;;;22.50;61.36;101292.94;5054561;28;4115;-68
2022/07/04 04:57:39;;;;;;;;;;;;;;;22.37;61.79;101280.09;5048350;28;5113;-68
2022/07/04 05:00:05;;;;;;;;;;;;;;;22.06;62.78;101289.50;5049068;28;4518;-68
2022/07/04 05:02:32;;;;;;;;;;;;;;;22.11;62.34;101291.19;5052950;28;5597;-67
2022/07/04 05:04:58;;;;;;;;;;;;;;;22.28;62.01;101291.94;5053389;28;4171;-66
2022/07/04 05:07:25;;;;;;;;;;;;;;;22.04;62.79;101295.19;5056176;28;5280;-62
2022/07/04 05:09:58;;;;;;;;;;;;;;;21.31;65.07;101289.53;5048184;28;4252;-66
2022/07/04 05:12:25;;;;;;;;;;;;;;;20.78;66.91;101293.38;5047887;28;4221;-67
2022/07/04 05:14:52;;;;;;;;;;;;;;;20.58;67.72;101315.31;5051299;28;4188;-72
2022/07/04 05:17:18;;;;;;;;;;;;;;;20.18;68.64;101321.13;5047357;28;4148;-63
2022/07/04 05:19:45;;;;;;;;;;;;;;;20.66;68.19;101324.38;5047120;28;4217;-62
2022/07/04 05:22:11;;;;;;;;;;;;;;;20.25;68.88;101327.94;5053125;28;5314;-59
2022/07/04 05:24:40;;;;;;;;;;;;;;;20.73;67.65;101331.97;5045520;28;4015;-59
2022/07/04 05:27:07;;;;;;;;;;;;;;;21.06;66.81;101328.59;5047645;28;6445;-62
2022/07/04 05:29:33;;;;;;;;;;;;;;;20.06;69.27;101329.81;5044422;28;5054;-64
2022/07/04 05:31:59;;;;;;;;;;;;;;;21.07;66.38;101317.84;5055823;28;4254;-62
2022/07/04 05:34:26;;;;;;;;;;;;;;;21.30;65.17;101323.34;5051419;28;4571;-64
2022/07/04 05:36:54;;;;;;;;;;;;;;;21.39;64.63;101323.72;5054645;28;5318;-63
2022/07/04 05:39:21;;;;;;;;;;;;;;;21.62;63.57;101329.22;5052767;28;4170;-63
2022/07/04 05:41:47;;;;;;;;;;;;;;;21.75;63.07;101331.31;5056716;28;5013;-63
2022/07/04 05:44:13;;;;;;;;;;;;;;;21.77;62.64;101338.56;5050630;28;4074;-63
2022/07/04 05:46:40;;;;;;;;;;;;;;;21.88;62.04;101338.41;5056918;28;5261;-63
2022/07/04 05:49:06;;;;;;;;;;;;;;;21.74;61.88;101344.25;5055952;28;4512;-64
2022/07/04 05:51:32;;;;;;;;;;;;;;;21.92;61.18;101346.50;5055917;28;4202;-70
2022/07/04 05:53:59;;;;;;;;;;;;;;;22.03;60.77;101345.59;5056941;28;5395;-65
2022/07/04 05:56:25;;;;;;;;;;;;;;;22.02;60.50;101347.00;5050634;28;4213;-65
2022/07/04 05:58:52;;;;;;;;;;;;;;;21.87;60.78;101347.69;5055337;28;5105;-64
2022/07/04 06:01:19;;;;;;;;;;;;;;;21.74;60.22;101347.13;5056684;28;4060;-63
2022/07/04 06:03:45;;;;;;;;;;;;;;;21.50;60.66;101343.03;5052833;28;4439;-63
2022/07/04 06:06:11;;;;;;;;;;;;;;;21.50;60.09;101346.66;5057347;28;4175;-63
2022/07/04 06:08:38;;;;;;;;;;;;;;;21.49;60.25;101350.22;5052506;28;4265;-63
2022/07/04 06:11:04;;;;;;;;;;;;;;;21.64;59.82;101355.25;5055423;28;5261;-63
2022/07/04 06:13:31;;;;;;;;;;;;;;;21.65;59.55;101353.88;5053675;28;4225;-63
2022/07/04 06:15:57;;;;;;;;;;;;;;;21.59;59.92;101356.47;5056351;28;5229;-63
2022/07/04 06:18:24;;;;;;;;;;;;;;;21.66;59.65;101358.25;5054139;28;4112;-63
2022/07/04 06:20:50;;;;;;;;;;;;;;;21.71;59.37;101354.16;5055270;28;5269;-63
2022/07/04 06:23:16;;;;;;;;;;;;;;;21.95;59.16;101366.13;5055036;28;4262;-64
2022/07/04 06:25:43;;;;;;;;;;;;;;;21.98;58.81;101364.09;5055052;28;4303;-62
2022/07/04 06:28:09;;;;;;;;;;;;;;;21.91;58.91;101370.97;5053561;28;4202;-59
2022/07/04 06:30:56;;;;;;;;;;;;;;;22.09;58.50;101377.59;5056578;28;4162;-59
2022/07/04 06:33:22;;;;;;;;;;;;;;;22.16;58.21;101382.25;5053105;28;5266;-61
2022/07/04 06:35:54;;;;;;;;;;;;;;;22.22;57.96;101378.19;5051378;28;4240;-60
2022/07/04 06:38:21;;;;;;;;;;;;;;;22.28;58.06;101375.59;5055145;28;6341;-64
2022/07/04 06:40:52;;;;;;;;;;;;;;;22.32;57.96;101384.47;5055349;28;4289;-59
2022/07/04 06:43:19;;;;;;;;;;;;;;;22.33;57.85;101385.94;5055692;28;5282;-69
2022/07/04 06:45:45;;;;;;;;;;;;;;;22.37;57.45;101374.59;5052094;28;5525;-67
2022/07/04 06:48:12;;;;;;;;;;;;;;;22.39;57.48;101383.34;5048366;28;4060;-66
2022/07/04 06:50:42;;;;;;;;;;;;;;;22.35;56.93;101377.38;5058112;28;4060;-66
2022/07/04 06:53:09;;;;;;;;;;;;;;;22.37;57.17;101374.59;5055103;28;4013;-63
2022/07/04 06:55:36;;;;;;;;;;;;;;;22.38;57.00;101379.72;5051701;28;4766;-68
2022/07/04 06:58:02;;;;;;;;;;;;;;;22.42;56.82;101381.28;5051537;28;4261;-68
2022/07/04 07:00:32;;;;;;;;;;;;;;;22.53;57.09;101378.22;5045674;28;4244;-62
2022/07/04 07:02:58;;;;;;;;;;;;;;;22.49;56.84;101380.91;5055018;28;4279;-62
2022/07/04 07:05:25;;;;;;;;;;;;;;;22.50;57.06;101381.69;5055584;28;4140;-59
2022/07/04 07:08:11;;;;;;;;;;;;;;;22.51;57.21;101383.91;5054199;28;4276;-59
2022/07/04 07:10:38;;;;;;;;;;;;;;;22.52;57.01;101376.75;5055133;28;5078;-61
2022/07/04 07:13:04;;;;;;;;;;;;;;;22.54;57.33;101388.38;5053986;28;4243;-63
2022/07/04 07:15:35;;;;;;;;;;;;;;;22.57;57.17;101384.19;5048426;28;3987;-63
2022/07/04 07:18:02;;;;;;;;;;;;;;;22.57;56.97;101389.22;5054926;28;4198;-63
2022/07/04 07:20:28;;;;;;;;;;;;;;;22.59;56.79;101395.09;5047428;28;4161;-63
2022/07/04 07:22:54;;;;;;;;;;;;;;;22.61;57.10;101394.41;5047191;28;4232;-63
2022/07/04 07:25:21;;;;;;;;;;;;;;;22.61;56.88;101388.63;5047315;28;5361;-63
2022/07/04 07:27:47;;;;;;;;;;;;;;;22.62;56.98;101387.25;5048055;28;4071;-62
2022/07/04 07:30:13;;;;;;;;;;;;;;;22.64;57.17;101401.78;5046218;28;5541;-62
2022/07/04 07:32:40;;;;;;;;;;;;;;;22.65;56.93;101397.50;5044448;28;5596;-63
2022/07/04 07:35:06;;;;;;;;;;;;;;;22.66;57.24;101393.22;5046069;28;4565;-63
2022/07/04 07:37:33;;;;;;;;;;;;;;;22.68;57.20;101396.94;5045725;28;4166;-63
2022/07/04 07:39:59;;;;;;;;;;;;;;;22.70;57.05;101399.91;5046111;28;5278;-63
2022/07/04 07:42:26;;;;;;;;;;;;;;;22.71;57.11;101400.66;5042193;28;5220;-63
2022/07/04 07:44:52;;;;;;;;;;;;;;;22.72;57.00;101410.81;5042695;28;4059;-63
2022/07/04 07:47:19;;;;;;;;;;;;;;;22.73;57.06;101409.41;5044453;28;4380;-63
2022/07/04 07:49:47;;;;;;;;;;;;;;;22.73;56.97;101410.16;5048492;28;4139;-63
2022/07/04 07:52:14;;;;;;;;;;;;;;;22.75;57.07;101400.84;5046625;28;4296;-62
2022/07/04 07:54:41;;;;;;;;;;;;;;;22.75;56.92;101400.84;5049096;28;4186;-62
2022/07/04 07:57:25;;;;;;;;;;;;;;;22.76;56.88;101402.31;5046691;28;5233;-62
2022/07/04 07:59:52;;;;;;;;;;;;;;;22.77;57.05;101412.50;5044944;28;4306;-62
2022/07/04 08:02:18;;;;;;;;;;;;;;;22.78;57.00;101405.31;5047703;28;4333;-63
2022/07/04 08:04:44;;;;;;;;;;;;;;;22.79;56.91;101398.88;5047739;28;4251;-62
2022/07/04 08:07:13;;;;;;;;;;;;;;;22.81;56.87;101409.75;5046465;28;4197;-62
2022/07/04 08:09:49;;;;;;;;;;;;;;;22.81;56.98;101415.53;5050007;28;4178;-62
2022/07/04 08:12:15;;;;;;;;;;;;;;;22.82;56.65;101416.31;5050834;28;4135;-62
2022/07/04 08:14:42;;;;;;;;;;;;;;;22.83;56.59;101424.31;5048846;28;5463;-62
2022/07/04 08:17:10;;;;;;;;;;;;;;;22.84;56.65;101414.25;5051181;28;4062;-61
2022/07/04 08:19:37;;;;;;;;;;;;;;;22.84;56.84;101425.03;5051050;28;4024;-62
2022/07/04 08:22:03;;;;;;;;;;;;;;;22.85;56.90;101421.50;5048026;28;4181;-61
2022/07/04 08:24:40;;;;;;;;;;;;;;;22.86;56.86;101414.34;5048904;28;4140;-62
2022/07/04 08:27:07;;;;;;;;;;;;;;;22.87;56.88;101412.19;5050869;28;4156;-62
2022/07/04 08:29:34;;;;;;;;;;;;;;;22.88;56.54;101413.66;5050206;28;4185;-62
2022/07/04 08:32:01;;;;;;;;;;;;;;;22.88;56.39;101413.66;5049869;28;4214;-62
2022/07/04 08:34:27;;;;;;;;;;;;;;;22.89;56.66;101410.13;5048335;28;4910;-62
2022/07/04 08:36:53;;;;;;;;;;;;;;;22.89;56.63;101413.03;5050109;28;4229;-62
2022/07/04 08:39:20;;;;;;;;;;;;;;;22.90;56.51;101414.50;5049335;28;5271;-62
2022/07/04 08:41:46;;;;;;;;;;;;;;;22.91;56.85;101403.72;5046943;28;4203;-62
2022/07/04 08:44:13;;;;;;;;;;;;;;;22.91;56.79;101392.91;5049099;28;4200;-62
2022/07/04 08:46:40;;;;;;;;;;;;;;;22.92;56.68;101397.28;5050384;28;5278;-61
2022/07/04 08:49:17;;;;;;;;;;;;;;;22.92;56.50;101403.03;5047464;28;4295;-63
2022/07/04 08:51:46;;;;;;;;;;;;;;;22.92;56.57;101385.72;5047448;28;4166;-63
2022/07/04 08:59:45;;;;;;;;;;;;;;;22.93;56.58;101398.78;5047617;28;5200;-63
2022/07/04 09:02:13;;;;;;;;;;;;;;;22.95;56.52;101406.78;5049158;28;4214;-63
2022/07/04 09:04:40;;;;;;;;;;;;;;;22.95;56.39;101413.31;5045446;28;4272;-62
2022/07/04 09:07:06;;;;;;;;;;;;;;;22.96;56.77;101414.78;5047809;28;4331;-63
2022/07/04 09:09:32;;;;;;;;;;;;;;;22.96;56.62;101414.78;5045312;28;4247;-63
2022/07/04 09:11:59;;;;;;;;;;;;;;;22.97;56.44;101412.63;5045869;28;5182;-63
2022/07/04 09:14:25;;;;;;;;;;;;;;;22.97;56.23;101409.75;5049462;28;5192;-63
2022/07/04 09:16:53;;;;;;;;;;;;;;;22.99;56.32;101422.16;5049884;28;4063;-63
2022/07/04 09:19:20;;;;;;;;;;;;;;;22.99;56.51;101413.50;5050700;28;4184;-62
2022/07/04 09:21:47;;;;;;;;;;;;;;;22.99;56.34;101413.50;5051908;28;4428;-63
2022/07/04 09:24:14;;;;;;;;;;;;;;;23.00;56.23;101409.22;5045685;28;4186;-62
2022/07/04 09:26:40;;;;;;;;;;;;;;;23.01;56.30;101409.97;5050762;28;4128;-63
2022/07/04 09:29:07;;;;;;;;;;;;;;;23.02;56.18;101416.47;5047884;28;4213;-63
2022/07/04 09:31:33;;;;;;;;;;;;;;;23.03;56.43;101412.22;5046464;28;4169;-63
2022/07/04 09:34:03;;;;;;;;;;;;;;;23.03;56.27;101420.88;5049574;28;4315;-62
2022/07/04 09:36:30;;;;;;;;;;;;;;;23.04;56.26;101419.47;5047895;28;5187;-62
2022/07/04 09:39:17;;;;;;;;;;;;;;;23.02;56.31;101416.47;5047796;28;4199;-63
2022/07/04 09:42:02;;;;;;;;;;;;;;;23.03;56.47;101412.94;5049408;28;5308;-59
2022/07/04 09:44:43;;;;;;;;;;;;;;;23.07;56.39;101415.28;5056299;28;4266;-58
2022/07/04 09:47:27;;;;;;;;;;;;;;;23.09;56.30;101416.09;5057002;28;4303;-59
2022/07/04 09:50:03;;;;;;;;;;;;;;;23.11;56.21;101418.31;5058584;28;4197;-58
2022/07/04 09:52:30;;;;;;;;;;;;;;;23.11;56.20;101424.88;5058009;28;4409;-60
2022/07/04 09:54:58;;;;;;;;;;;;;;;23.12;56.09;101425.59;5050357;28;4365;-61
2022/07/04 09:57:24;;;;;;;;;;;;;;;23.11;54.98;101421.22;5055316;28;4199;-60
2022/07/04 09:59:50;;;;;;;;;;;;;;;23.11;55.41;101419.09;5058275;28;4139;-59
2022/07/04 10:02:20;;;;;;;;;;;;;;;23.13;55.44;101416.25;5056149;28;4270;-59
2022/07/04 10:04:47;;;;;;;;;;;;;;;23.13;55.74;101419.16;5057752;28;4184;-59
2022/07/04 10:07:29;;;;;;;;;;;;;;;23.14;55.96;101414.13;5054795;28;4036;-59
2022/07/04 10:09:56;;;;;;;;;;;;;;;23.14;56.16;101420.66;5056465;28;4210;-59
2022/07/04 10:12:28;;;;;;;;;;;;;;;23.16;55.69;101420.00;5055708;28;5304;-60
2022/07/04 10:14:57;;;;;;;;;;;;;;;23.17;55.63;101425.13;5057693;28;4024;-59
2022/07/04 10:17:24;;;;;;;;;;;;;;;23.19;55.80;101422.31;5055464;28;5115;-59
2022/07/04 10:19:52;;;;;;;;;;;;;;;23.24;55.80;101419.63;5057107;28;5474;-59
2022/07/04 10:22:19;;;;;;;;;;;;;;;23.23;55.27;101426.78;5053475;28;4232;-60
2022/07/04 10:24:45;;;;;;;;;;;;;;;23.15;52.29;101419.25;5055830;28;5374;-59
2022/07/04 10:27:11;;;;;;;;;;;;;;;23.19;53.25;101430.25;5054137;28;5682;-60
2022/07/04 10:29:38;;;;;;;;;;;;;;;23.16;54.17;101420.75;5055682;28;5241;-59
2022/07/04 10:32:06;;;;;;;;;;;;;;;23.20;54.35;101414.38;5053166;28;4570;-60
2022/07/04 10:34:38;;;;;;;;;;;;;;;23.22;55.03;101417.38;5054795;28;4349;-59
2022/07/04 10:37:05;;;;;;;;;;;;;;;23.23;55.31;101400.78;5056050;28;5361;-59
2022/07/04 10:39:31;;;;;;;;;;;;;;;23.23;55.25;101407.31;5056599;28;5291;-59
2022/07/04 10:42:01;;;;;;;;;;;;;;;23.20;53.63;101405.72;5049165;28;4107;-65
2022/07/04 10:44:35;;;;;;;;;;;;;;;23.20;52.69;101406.47;5055002;28;4341;-65
2022/07/04 10:47:01;;;;;;;;;;;;;;;23.23;54.01;101415.97;5056085;28;4152;-67
2022/07/04 10:49:28;;;;;;;;;;;;;;;23.23;54.55;101406.56;5052290;28;4224;-67
2022/07/04 10:51:56;;;;;;;;;;;;;;;23.24;54.64;101397.22;5052204;28;4387;-63
2022/07/04 10:54:32;;;;;;;;;;;;;;;23.25;54.33;101390.06;5051297;28;4249;-61
2022/07/04 10:57:08;;;;;;;;;;;;;;;23.27;54.42;101395.91;5054632;28;4235;-61
2022/07/04 10:59:34;;;;;;;;;;;;;;;23.28;54.07;101390.91;5054180;28;4382;-60
2022/07/04 11:02:07;;;;;;;;;;;;;;;23.28;54.22;101388.00;5053350;28;3991;-60
2022/07/04 11:04:51;;;;;;;;;;;;;;;23.28;54.47;101391.63;5054881;28;4238;-61
2022/07/04 11:07:18;;;;;;;;;;;;;;;23.27;54.13;101384.34;5055426;28;4038;-59
2022/07/04 11:09:45;;;;;;;;;;;;;;;23.29;54.21;101396.00;5055703;28;5266;-59
2022/07/04 11:12:12;;;;;;;;;;;;;;;23.29;54.43;101398.16;5052433;28;5287;-59
2022/07/04 11:14:43;;;;;;;;;;;;;;;23.28;54.52;101391.63;5055806;28;4151;-59
2022/07/04 11:17:10;;;;;;;;;;;;;;;23.29;54.64;101387.34;5056432;28;4127;-59
2022/07/04 11:19:43;;;;;;;;;;;;;;;23.32;54.40;101379.50;5053251;28;4132;-59
2022/07/04 11:22:10;;;;;;;;;;;;;;;23.33;54.58;101384.63;5055386;28;5124;-60
2022/07/04 11:24:37;;;;;;;;;;;;;;;23.33;54.54;101375.94;5055213;28;4197;-60
2022/07/04 11:27:04;;;;;;;;;;;;;;;23.34;54.74;101373.81;5051630;28;4316;-60
2022/07/04 11:29:30;;;;;;;;;;;;;;;23.33;54.52;101378.84;5051442;28;5499;-64
2022/07/04 11:31:56;;;;;;;;;;;;;;;23.35;54.39;101369.53;5050857;28;5313;-62
2022/07/04 11:34:23;;;;;;;;;;;;;;;23.33;54.20;101370.16;5053164;28;4253;-59
2022/07/04 11:36:50;;;;;;;;;;;;;;;23.36;54.17;101360.19;5051858;28;4318;-59
2022/07/04 11:39:19;;;;;;;;;;;;;;;23.36;53.94;101374.63;5053001;28;4258;-60
2022/07/04 11:47:19;;;;;;;;;;;;;;;23.39;53.42;101367.53;5058244;28;4164;-59
2022/07/04 11:49:46;;;;;;;;;;;;;;;23.39;53.40;101367.53;5057721;28;4253;-59
2022/07/04 11:52:12;;;;;;;;;;;;;;;23.39;53.53;101367.53;5057374;28;4432;-59
2022/07/04 11:54:40;;;;;;;;;;;;;;;23.40;53.32;101366.13;5054068;28;4540;-64
2022/07/04 11:57:19;;;;;;;;;;;;;;;23.52;53.56;101362.25;5057700;28;4481;-62
2022/07/04 12:00:04;;;;;;;;;;;;;;;23.49;53.61;101363.59;5057311;28;4753;-62
2022/07/04 12:02:30;;;;;;;;;;;;;;;23.48;53.43;101362.09;5060423;28;4217;-62
2022/07/04 12:04:57;;;;;;;;;;;;;;;23.47;53.76;101369.28;5055382;28;4321;-62
2022/07/04 12:07:24;;;;;;;;;;;;;;;23.47;53.74;101360.63;5060224;28;5300;-62
2022/07/04 12:09:51;;;;;;;;;;;;;;;23.45;53.57;101361.25;5058764;28;4226;-64
2022/07/04 12:12:17;;;;;;;;;;;;;;;23.47;53.79;101360.63;5058392;28;4146;-63
2022/07/04 12:14:56;;;;;;;;;;;;;;;23.47;53.68;101361.34;5059522;28;5338;-63
2022/07/04 12:17:27;;;;;;;;;;;;;;;23.48;53.73;101351.28;5058383;28;4278;-64
2022/07/04 12:19:58;;;;;;;;;;;;;;;23.50;53.83;101354.28;5059685;28;4127;-63
2022/07/04 12:22:25;;;;;;;;;;;;;;;23.51;53.72;101357.91;5058238;28;4137;-64
2022/07/04 12:24:52;;;;;;;;;;;;;;;23.49;53.90;101346.25;5058764;28;4213;-64
2022/07/04 12:27:18;;;;;;;;;;;;;;;23.50;53.86;101356.41;5059381;28;4305;-61
2022/07/04 12:29:48;;;;;;;;;;;;;;;23.49;54.29;101354.91;5057869;28;4472;-64
2022/07/04 12:32:14;;;;;;;;;;;;;;;23.49;53.90;101357.81;5052998;28;4191;-63
2022/07/04 12:34:41;;;;;;;;;;;;;;;23.49;54.12;101360.69;5058109;28;4232;-64
2022/07/04 12:37:08;;;;;;;;;;;;;;;23.52;54.02;101350.69;5056127;28;4248;-62
2022/07/04 12:39:35;;;;;;;;;;;;;;;23.52;54.09;101350.69;5056158;28;4219;-62
2022/07/04 12:42:04;;;;;;;;;;;;;;;23.54;54.14;101342.13;5057328;28;4206;-62
2022/07/04 12:44:30;;;;;;;;;;;;;;;23.53;54.06;101346.41;5054234;28;5230;-63
2022/07/04 12:46:56;;;;;;;;;;;;;;;23.54;54.29;101339.22;5054658;28;4261;-63
2022/07/04 12:49:44;;;;;;;;;;;;;;;23.54;54.39;101336.34;5054436;28;5243;-62
2022/07/04 12:52:14;;;;;;;;;;;;;;;23.56;54.37;101337.16;5057347;28;4166;-62
2022/07/04 12:54:41;;;;;;;;;;;;;;;23.56;54.13;101334.25;5055584;28;4194;-63
2022/07/04 12:57:09;;;;;;;;;;;;;;;23.56;54.35;101339.31;5050131;28;5437;-63
2022/07/04 12:59:35;;;;;;;;;;;;;;;23.59;54.43;101340.88;5056763;28;4144;-63
2022/07/04 13:02:02;;;;;;;;;;;;;;;23.60;54.54;101339.47;5055710;28;4073;-61
2022/07/04 13:04:30;;;;;;;;;;;;;;;23.61;54.15;101335.16;5058125;28;4216;-62
2022/07/04 13:06:59;;;;;;;;;;;;;;;23.61;54.54;101340.97;5053766;28;5290;-62